createdAt,value
2018-07-03T14:48:38.986Z,79.00
2018-07-03T14:53:44.513Z,81.30
2018-07-03T14:58:49.263Z,75.00
2018-07-03T15:03:54.248Z,77.40
2018-07-03T15:08:59.614Z,81.30
2018-07-03T15:14:04.617Z,83.40
2018-07-03T15:19:14.572Z,84.50
2018-07-03T15:24:19.647Z,82.20
2018-07-03T15:29:24.240Z,83.60
2018-07-03T15:34:28.988Z,82.90
2018-07-03T15:39:34.055Z,81.60
2018-07-03T15:44:49.817Z,83.50
2018-07-03T15:49:54.567Z,84.60
2018-07-03T15:54:59.485Z,84.20
2018-07-03T16:00:05.136Z,84.70
2018-07-03T16:05:20.863Z,83.30
2018-07-03T16:10:26.023Z,80.90
2018-07-03T16:15:30.724Z,81.60
2018-07-03T16:20:39.885Z,81.70
2018-07-03T16:30:48.810Z,81.00
2018-07-03T16:35:53.678Z,80.30
2018-07-03T16:40:58.294Z,75.90
2018-07-03T16:46:03.759Z,75.30
2018-07-03T16:51:08.729Z,78.70
2018-07-03T16:56:13.434Z,76.60
2018-07-03T17:01:18.280Z,73.90
2018-07-03T17:06:23.833Z,77.90
2018-07-03T17:11:28.542Z,77.60
2018-07-03T17:16:33.415Z,79.00
2018-07-03T17:26:42.375Z,85.50
2018-07-03T17:31:47.123Z,87.60
2018-07-03T17:36:51.916Z,88.30
2018-07-03T17:42:08.563Z,90.40
2018-07-03T17:47:14.198Z,91.80
2018-07-03T17:52:19.461Z,93.40
2018-07-03T17:57:24.197Z,94.40
2018-07-03T18:02:29.931Z,96.20
2018-07-03T18:07:35.097Z,96.60
2018-07-03T18:12:39.808Z,97.10
2018-07-03T18:17:44.681Z,97.40
2018-07-03T18:22:49.569Z,98.00
2018-07-03T18:27:54.359Z,98.30
2018-07-03T18:32:59.257Z,98.60
2018-07-03T18:38:04.356Z,98.40
2018-07-03T18:43:09.445Z,97.90
2018-07-03T18:48:14.520Z,98.30
2018-07-03T18:53:19.472Z,98.70
2018-07-03T19:03:28.753Z,99.00
2018-07-03T19:08:33.671Z,99.60
2018-07-03T19:13:38.276Z,99.60
2018-07-03T19:18:42.968Z,99.60
2018-07-03T19:23:48.096Z,99.60
2018-07-03T19:28:52.856Z,99.60
2018-07-03T19:33:57.875Z,99.60
2018-07-03T19:39:02.866Z,99.60
2018-07-03T19:44:07.642Z,99.60
2018-07-03T19:49:12.760Z,99.60
2018-07-03T19:54:18.006Z,99.60
2018-07-03T19:59:23.774Z,99.60
2018-07-03T20:04:28.834Z,99.60
2018-07-03T20:09:34.346Z,99.60
2018-07-03T20:14:39.551Z,99.60
2018-07-03T20:19:44.721Z,99.60
2018-07-03T20:24:49.786Z,99.60
2018-07-03T20:29:55.080Z,99.60
2018-07-03T20:35:00.011Z,99.60
2018-07-03T20:45:10.657Z,99.60
2018-07-03T20:50:15.665Z,99.60
2018-07-03T20:55:20.532Z,99.60
2018-07-03T21:00:25.594Z,99.60
2018-07-03T21:05:30.558Z,99.60
2018-07-03T21:10:35.641Z,99.60
2018-07-03T21:15:40.651Z,99.60
2018-07-03T21:20:45.725Z,99.60
2018-07-03T21:25:50.635Z,99.60
2018-07-03T21:30:55.637Z,99.60
2018-07-03T21:36:00.542Z,99.60
2018-07-03T21:41:05.330Z,99.60
2018-07-03T21:46:10.164Z,99.60
2018-07-03T21:51:15.696Z,99.60
2018-07-03T21:56:20.470Z,99.60
2018-07-03T22:01:25.642Z,99.60
2018-07-03T22:06:30.685Z,99.60
2018-07-03T22:11:35.620Z,99.60
2018-07-03T22:16:40.742Z,99.60
2018-07-03T22:21:45.504Z,99.60
2018-07-03T22:26:50.686Z,99.60
2018-07-03T22:31:56.014Z,99.60
2018-07-03T22:37:01.895Z,99.60
2018-07-03T22:42:07.750Z,99.60
2018-07-03T22:47:12.911Z,99.60
2018-07-03T22:52:17.827Z,99.60
2018-07-03T22:57:22.662Z,99.60
2018-07-03T23:02:27.398Z,99.60
2018-07-03T23:07:31.994Z,99.60
2018-07-03T23:12:36.743Z,99.60
2018-07-03T23:17:41.351Z,99.60
2018-07-03T23:22:46.334Z,99.60
2018-07-03T23:27:50.960Z,99.60
2018-07-03T23:32:55.716Z,99.60
2018-07-03T23:38:00.552Z,99.60
2018-07-03T23:43:05.898Z,99.60
2018-07-03T23:48:21.811Z,99.60
2018-07-03T23:53:37.412Z,99.60
2018-07-03T23:58:53.108Z,99.60
